sensor_id;sensor_type;location;lat;lon;timestamp;pressure;altitude;pressure_sealevel;temperature;humidity
23616;BME280;11985;49.404;7.734;2023-02-19T00:01:50;97815.56;;;6.33;100.00
23616;BME280;11985;49.404;7.734;2023-02-19T00:06:52;97803.94;;;6.36;100.00
23616;BME280;11985;49.404;7.734;2023-02-19T00:11:55;97791.03;;;6.34;100.00
23616;BME280;11985;49.404;7.734;2023-02-19T00:16:56;97809.00;;;6.38;100.00
23616;BME280;11985;49.404;7.734;2023-02-19T00:21:58;97802.13;;;6.37;100.00
23616;BME280;11985;49.404;7.734;2023-02-19T00:27:01;97796.28;;;6.34;100.00
23616;BME280;11985;49.404;7.734;2023-02-19T00:32:02;97793.31;;;6.29;100.00
23616;BME280;11985;49.404;7.734;2023-02-19T00:37:04;97793.31;;;6.29;100.00
23616;BME280;11985;49.404;7.734;2023-02-19T00:42:09;97795.94;;;6.29;100.00
23616;BME280;11985;49.404;7.734;2023-02-19T00:47:11;97785.16;;;6.24;100.00
23616;BME280;11985;49.404;7.734;2023-02-19T00:52:12;97807.72;;;6.25;100.00
23616;BME280;11985;49.404;7.734;2023-02-19T00:57:15;97788.09;;;6.21;100.00
23616;BME280;11985;49.404;7.734;2023-02-19T01:02:17;97809.34;;;6.26;100.00
23616;BME280;11985;49.404;7.734;2023-02-19T01:07:19;97827.19;;;6.23;100.00
23616;BME280;11985;49.404;7.734;2023-02-19T01:12:21;97803.16;;;6.27;100.00
23616;BME280;11985;49.404;7.734;2023-02-19T01:17:24;97786.13;;;6.31;100.00
23616;BME280;11985;49.404;7.734;2023-02-19T01:22:26;97767.16;;;6.29;100.00
23616;BME280;11985;49.404;7.734;2023-02-19T01:27:29;97778.63;;;6.28;100.00
23616;BME280;11985;49.404;7.734;2023-02-19T01:32:31;97786.63;;;6.27;100.00
23616;BME280;11985;49.404;7.734;2023-02-19T01:37:32;97787.78;;;6.24;100.00
23616;BME280;11985;49.404;7.734;2023-02-19T01:42:35;97781.25;;;6.28;100.00
23616;BME280;11985;49.404;7.734;2023-02-19T01:47:37;97783.84;;;6.28;100.00
23616;BME280;11985;49.404;7.734;2023-02-19T01:52:38;97772.41;;;6.29;100.00
23616;BME280;11985;49.404;7.734;2023-02-19T01:57:44;97775.66;;;6.31;100.00
23616;BME280;11985;49.404;7.734;2023-02-19T02:02:48;97780.56;;;6.34;100.00
23616;BME280;11985;49.404;7.734;2023-02-19T02:07:51;97766.19;;;6.39;100.00
23616;BME280;11985;49.404;7.734;2023-02-19T02:13:13;97760.41;;;6.43;100.00
23616;BME280;11985;49.404;7.734;2023-02-19T02:18:21;97736.06;;;6.43;100.00
23616;BME280;11985;49.404;7.734;2023-02-19T02:23:39;97745.53;;;6.44;100.00
23616;BME280;11985;49.404;7.734;2023-02-19T02:29:05;97751.75;;;6.43;100.00
23616;BME280;11985;49.404;7.734;2023-02-19T02:34:16;97734.13;;;6.45;100.00
23616;BME280;11985;49.404;7.734;2023-02-19T02:39:21;97734.13;;;6.45;100.00
23616;BME280;11985;49.404;7.734;2023-02-19T02:44:33;97723.66;;;6.45;100.00
23616;BME280;11985;49.404;7.734;2023-02-19T02:49:36;97738.34;;;6.46;100.00
23616;BME280;11985;49.404;7.734;2023-02-19T02:54:57;97740.97;;;6.46;100.00
23616;BME280;11985;49.404;7.734;2023-02-19T03:00:06;97736.56;;;6.46;100.00
23616;BME280;11985;49.404;7.734;2023-02-19T03:05:14;97730.97;;;6.49;100.00
23616;BME280;11985;49.404;7.734;2023-02-19T03:10:37;97730.81;;;6.51;100.00
23616;BME280;11985;49.404;7.734;2023-02-19T03:15:43;97731.28;;;6.54;100.00
23616;BME280;11985;49.404;7.734;2023-02-19T03:21:08;97723.28;;;6.56;100.00
23616;BME280;11985;49.404;7.734;2023-02-19T03:26:14;97716.69;;;6.60;100.00
23616;BME280;11985;49.404;7.734;2023-02-19T03:31:20;97726.34;;;6.59;100.00
23616;BME280;11985;49.404;7.734;2023-02-19T03:36:29;97708.22;;;6.58;100.00
23616;BME280;11985;49.404;7.734;2023-02-19T03:41:35;97716.69;;;6.60;100.00
23616;BME280;11985;49.404;7.734;2023-02-19T03:46:45;97723.25;;;6.64;100.00
23616;BME280;11985;49.404;7.734;2023-02-19T03:51:57;97721.13;;;6.68;100.00
23616;BME280;11985;49.404;7.734;2023-02-19T03:57:06;97735.00;;;6.68;100.00
23616;BME280;11985;49.404;7.734;2023-02-19T04:02:13;97732.09;;;6.63;100.00
23616;BME280;11985;49.404;7.734;2023-02-19T04:07:17;97724.88;;;6.65;100.00
23616;BME280;11985;49.404;7.734;2023-02-19T04:12:20;97736.81;;;6.68;100.00
23616;BME280;11985;49.404;7.734;2023-02-19T04:17:25;97730.91;;;6.66;100.00
23616;BME280;11985;49.404;7.734;2023-02-19T04:22:28;97730.09;;;6.65;100.00
23616;BME280;11985;49.404;7.734;2023-02-19T04:27:31;97739.44;;;6.68;100.00
23616;BME280;11985;49.404;7.734;2023-02-19T04:32:34;97741.25;;;6.67;100.00
23616;BME280;11985;49.404;7.734;2023-02-19T04:37:37;97740.88;;;6.70;100.00
23616;BME280;11985;49.404;7.734;2023-02-19T04:42:38;97748.72;;;6.70;100.00
23616;BME280;11985;49.404;7.734;2023-02-19T04:47:40;97749.09;;;6.67;100.00
23616;BME280;11985;49.404;7.734;2023-02-19T04:52:43;97751.22;;;6.64;100.00
23616;BME280;11985;49.404;7.734;2023-02-19T04:57:44;97766.75;;;6.65;100.00
23616;BME280;11985;49.404;7.734;2023-02-19T05:02:46;97763.13;;;6.66;100.00
23616;BME280;11985;49.404;7.734;2023-02-19T05:07:49;97768.06;;;6.69;100.00
23616;BME280;11985;49.404;7.734;2023-02-19T05:12:51;97760.69;;;6.73;100.00
23616;BME280;11985;49.404;7.734;2023-02-19T05:17:52;97775.53;;;6.80;100.00
23616;BME280;11985;49.404;7.734;2023-02-19T05:22:55;97786.00;;;6.88;100.00
23616;BME280;11985;49.404;7.734;2023-02-19T05:27:57;97797.78;;;6.84;100.00
23616;BME280;11985;49.404;7.734;2023-02-19T05:33:15;97802.66;;;6.87;100.00
23616;BME280;11985;49.404;7.734;2023-02-19T05:38:18;97801.34;;;7.00;100.00
23616;BME280;11985;49.404;7.734;2023-02-19T05:43:20;97803.28;;;6.98;100.00
23616;BME280;11985;49.404;7.734;2023-02-19T05:48:22;97808.88;;;6.95;100.00
23616;BME280;11985;49.404;7.734;2023-02-19T05:53:25;97817.38;;;6.97;100.00
23616;BME280;11985;49.404;7.734;2023-02-19T05:58:27;97820.81;;;6.97;100.00
23616;BME280;11985;49.404;7.734;2023-02-19T06:03:29;97838.31;;;6.97;100.00
23616;BME280;11985;49.404;7.734;2023-02-19T06:08:31;97840.81;;;6.90;100.00
23616;BME280;11985;49.404;7.734;2023-02-19T06:13:33;97839.63;;;6.93;100.00
23616;BME280;11985;49.404;7.734;2023-02-19T06:18:35;97843.88;;;6.94;100.00
23616;BME280;11985;49.404;7.734;2023-02-19T06:23:38;97848.97;;;6.95;100.00
23616;BME280;11985;49.404;7.734;2023-02-19T06:28:40;97849.28;;;7.00;100.00
23616;BME280;11985;49.404;7.734;2023-02-19T06:33:42;97856.84;;;6.95;100.00
23616;BME280;11985;49.404;7.734;2023-02-19T06:38:46;97865.19;;;6.91;100.00
23616;BME280;11985;49.404;7.734;2023-02-19T06:43:47;97864.56;;;6.88;100.00
23616;BME280;11985;49.404;7.734;2023-02-19T06:48:49;97870.75;;;6.87;100.00
23616;BME280;11985;49.404;7.734;2023-02-19T06:53:52;97871.91;;;6.85;100.00
23616;BME280;11985;49.404;7.734;2023-02-19T06:58:56;97883.53;;;6.82;100.00
23616;BME280;11985;49.404;7.734;2023-02-19T07:03:58;97898.91;;;6.85;100.00
23616;BME280;11985;49.404;7.734;2023-02-19T07:09:03;97904.78;;;6.96;100.00
23616;BME280;11985;49.404;7.734;2023-02-19T07:14:06;97916.84;;;7.13;100.00
23616;BME280;11985;49.404;7.734;2023-02-19T07:19:09;97917.19;;;7.10;100.00
23616;BME280;11985;49.404;7.734;2023-02-19T07:24:12;97915.72;;;6.99;100.00
23616;BME280;11985;49.404;7.734;2023-02-19T07:29:14;97927.69;;;6.94;100.00
23616;BME280;11985;49.404;7.734;2023-02-19T07:34:15;97940.13;;;6.92;100.00
23616;BME280;11985;49.404;7.734;2023-02-19T07:39:18;97948.16;;;6.90;100.00
23616;BME280;11985;49.404;7.734;2023-02-19T07:44:20;97953.41;;;6.90;100.00
23616;BME280;11985;49.404;7.734;2023-02-19T07:49:21;97962.72;;;6.93;100.00
23616;BME280;11985;49.404;7.734;2023-02-19T07:54:24;97967.63;;;6.96;100.00
23616;BME280;11985;49.404;7.734;2023-02-19T07:59:25;97968.28;;;7.06;100.00
23616;BME280;11985;49.404;7.734;2023-02-19T08:04:27;97967.94;;;7.09;100.00
23616;BME280;11985;49.404;7.734;2023-02-19T08:09:30;97968.59;;;7.03;100.00
23616;BME280;11985;49.404;7.734;2023-02-19T08:14:32;97975.31;;;6.97;100.00
23616;BME280;11985;49.404;7.734;2023-02-19T08:19:33;97982.38;;;6.97;100.00
23616;BME280;11985;49.404;7.734;2023-02-19T08:24:36;97983.00;;;6.99;100.00
23616;BME280;11985;49.404;7.734;2023-02-19T08:29:42;97980.72;;;7.04;100.00
23616;BME280;11985;49.404;7.734;2023-02-19T08:34:43;97977.78;;;6.99;100.00
23616;BME280;11985;49.404;7.734;2023-02-19T08:39:46;97989.41;;;6.96;100.00
23616;BME280;11985;49.404;7.734;2023-02-19T08:44:48;97988.44;;;7.05;100.00
23616;BME280;11985;49.404;7.734;2023-02-19T08:49:49;97996.41;;;7.20;100.00
23616;BME280;11985;49.404;7.734;2023-02-19T08:54:52;97995.75;;;7.26;100.00
23616;BME280;11985;49.404;7.734;2023-02-19T08:59:54;98002.97;;;7.24;100.00
23616;BME280;11985;49.404;7.734;2023-02-19T09:04:56;98011.47;;;7.26;100.00
23616;BME280;11985;49.404;7.734;2023-02-19T09:09:59;98026.06;;;7.29;100.00
23616;BME280;11985;49.404;7.734;2023-02-19T09:15:01;98031.59;;;7.26;100.00
23616;BME280;11985;49.404;7.734;2023-02-19T09:20:03;98048.78;;;7.36;100.00
23616;BME280;11985;49.404;7.734;2023-02-19T09:25:06;98049.13;;;7.33;100.00
23616;BME280;11985;49.404;7.734;2023-02-19T09:30:08;98058.47;;;7.44;100.00
23616;BME280;11985;49.404;7.734;2023-02-19T09:35:10;98049.63;;;7.45;100.00
23616;BME280;11985;49.404;7.734;2023-02-19T09:40:13;98058.97;;;7.39;100.00
23616;BME280;11985;49.404;7.734;2023-02-19T09:45:22;98061.56;;;7.48;100.00
23616;BME280;11985;49.404;7.734;2023-02-19T09:50:31;98070.69;;;7.60;100.00
23616;BME280;11985;49.404;7.734;2023-02-19T09:55:37;98092.16;;;7.63;100.00
23616;BME280;11985;49.404;7.734;2023-02-19T10:00:40;98094.31;;;7.52;100.00
23616;BME280;11985;49.404;7.734;2023-02-19T10:05:41;98097.94;;;7.51;100.00
23616;BME280;11985;49.404;7.734;2023-02-19T10:10:45;98090.91;;;7.35;100.00
23616;BME280;11985;49.404;7.734;2023-02-19T10:15:49;98091.38;;;7.30;100.00
23616;BME280;11985;49.404;7.734;2023-02-19T10:20:51;98096.31;;;7.33;100.00
23616;BME280;11985;49.404;7.734;2023-02-19T10:25:55;98100.22;;;7.29;100.00
23616;BME280;11985;49.404;7.734;2023-02-19T10:31:00;98120.88;;;7.24;100.00
23616;BME280;11985;49.404;7.734;2023-02-19T10:36:03;98116.75;;;7.38;100.00
23616;BME280;11985;49.404;7.734;2023-02-19T10:41:12;98101.84;;;7.47;100.00
23616;BME280;11985;49.404;7.734;2023-02-19T10:46:16;98104.47;;;7.30;100.00
23616;BME280;11985;49.404;7.734;2023-02-19T10:51:19;98103.66;;;7.30;100.00
23616;BME280;11985;49.404;7.734;2023-02-19T10:56:27;98095.78;;;7.38;100.00
23616;BME280;11985;49.404;7.734;2023-02-19T11:01:30;98098.06;;;7.57;100.00
23616;BME280;11985;49.404;7.734;2023-02-19T11:06:32;98098.16;;;7.97;100.00
23616;BME280;11985;49.404;7.734;2023-02-19T11:11:37;98101.72;;;8.12;100.00
23616;BME280;11985;49.404;7.734;2023-02-19T11:16:41;98107.22;;;8.33;100.00
23616;BME280;11985;49.404;7.734;2023-02-19T11:21:44;98124.13;;;8.31;100.00
23616;BME280;11985;49.404;7.734;2023-02-19T11:26:47;98133.78;;;8.30;100.00
23616;BME280;11985;49.404;7.734;2023-02-19T11:31:49;98145.25;;;8.45;100.00
23616;BME280;11985;49.404;7.734;2023-02-19T11:37:06;98150.78;;;8.59;100.00
23616;BME280;11985;49.404;7.734;2023-02-19T11:42:29;98132.50;;;8.65;100.00
23616;BME280;11985;49.404;7.734;2023-02-19T11:53:28;98124.88;;;8.48;100.00
23616;BME280;11985;49.404;7.734;2023-02-19T12:09:47;98119.13;;;8.52;100.00
23616;BME280;11985;49.404;7.734;2023-02-19T12:15:12;98138.59;;;8.66;100.00
23616;BME280;11985;49.404;7.734;2023-02-19T12:20:25;98132.84;;;8.93;100.00
23616;BME280;11985;49.404;7.734;2023-02-19T12:25:48;98134.25;;;9.04;100.00
23616;BME280;11985;49.404;7.734;2023-02-19T12:31:10;98127.84;;;9.07;100.00
23616;BME280;11985;49.404;7.734;2023-02-19T12:36:25;98129.81;;;9.05;100.00
23616;BME280;11985;49.404;7.734;2023-02-19T12:41:39;98131.41;;;9.14;100.00
23616;BME280;11985;49.404;7.734;2023-02-19T12:46:46;98136.34;;;9.55;100.00
23616;BME280;11985;49.404;7.734;2023-02-19T12:51:51;98113.03;;;9.51;100.00
23616;BME280;11985;49.404;7.734;2023-02-19T12:57:00;98131.63;;;9.27;100.00
23616;BME280;11985;49.404;7.734;2023-02-19T13:02:11;98133.16;;;8.98;100.00
23616;BME280;11985;49.404;7.734;2023-02-19T13:07:17;98126.03;;;8.84;100.00
23616;BME280;11985;49.404;7.734;2023-02-19T13:12:23;98129.94;;;8.88;100.00
23616;BME280;11985;49.404;7.734;2023-02-19T13:17:35;98122.91;;;8.81;100.00
23616;BME280;11985;49.404;7.734;2023-02-19T13:22:42;98119.88;;;8.92;100.00
23616;BME280;11985;49.404;7.734;2023-02-19T13:28:09;98113.41;;;8.80;100.00
23616;BME280;11985;49.404;7.734;2023-02-19T13:33:28;98108.53;;;8.68;100.00
23616;BME280;11985;49.404;7.734;2023-02-19T13:38:37;98105.13;;;8.60;100.00
23616;BME280;11985;49.404;7.734;2023-02-19T13:43:39;98091.31;;;8.66;100.00
23616;BME280;11985;49.404;7.734;2023-02-19T13:48:44;98081.41;;;8.76;100.00
23616;BME280;11985;49.404;7.734;2023-02-19T13:53:49;98088.56;;;8.90;100.00
23616;BME280;11985;49.404;7.734;2023-02-19T13:58:58;98082.19;;;9.08;100.00
23616;BME280;11985;49.404;7.734;2023-02-19T14:04:18;98091.97;;;9.14;100.00
23616;BME280;11985;49.404;7.734;2023-02-19T14:09:43;98093.84;;;9.28;100.00
23616;BME280;11985;49.404;7.734;2023-02-19T14:14:46;98100.38;;;9.32;100.00
23616;BME280;11985;49.404;7.734;2023-02-19T14:19:59;98100.63;;;9.22;100.00
23616;BME280;11985;49.404;7.734;2023-02-19T14:25:02;98103.06;;;9.24;100.00
23616;BME280;11985;49.404;7.734;2023-02-19T14:30:10;98111.97;;;9.23;100.00
23616;BME280;11985;49.404;7.734;2023-02-19T14:35:18;98118.25;;;9.14;100.00
23616;BME280;11985;49.404;7.734;2023-02-19T14:40:22;98121.13;;;9.04;100.00
23616;BME280;11985;49.404;7.734;2023-02-19T14:45:27;98122.34;;;8.93;100.00
23616;BME280;11985;49.404;7.734;2023-02-19T14:50:31;98127.47;;;8.87;100.00
23616;BME280;11985;49.404;7.734;2023-02-19T14:55:35;98131.31;;;8.76;100.00
23616;BME280;11985;49.404;7.734;2023-02-19T15:00:39;98141.50;;;8.71;100.00
23616;BME280;11985;49.404;7.734;2023-02-19T15:05:42;98148.56;;;8.70;100.00
23616;BME280;11985;49.404;7.734;2023-02-19T15:10:45;98150.44;;;8.62;100.00
23616;BME280;11985;49.404;7.734;2023-02-19T15:15:47;98167.34;;;8.59;100.00
23616;BME280;11985;49.404;7.734;2023-02-19T15:20:58;98167.00;;;8.62;100.00
23616;BME280;11985;49.404;7.734;2023-02-19T15:26:01;98160.44;;;8.66;100.00
23616;BME280;11985;49.404;7.734;2023-02-19T15:31:14;98166.25;;;8.45;100.00
23616;BME280;11985;49.404;7.734;2023-02-19T15:36:22;98164.13;;;8.33;100.00
23616;BME280;11985;49.404;7.734;2023-02-19T15:41:27;98183.84;;;8.20;100.00
23616;BME280;11985;49.404;7.734;2023-02-19T15:46:31;98179.09;;;8.16;100.00
23616;BME280;11985;49.404;7.734;2023-02-19T15:51:39;98184.19;;;8.09;100.00
23616;BME280;11985;49.404;7.734;2023-02-19T15:56:48;98188.81;;;8.07;100.00
23616;BME280;11985;49.404;7.734;2023-02-19T16:01:50;98189.94;;;8.05;100.00
23616;BME280;11985;49.404;7.734;2023-02-19T16:06:55;98184.69;;;8.05;100.00
23616;BME280;11985;49.404;7.734;2023-02-19T16:11:58;98184.38;;;8.08;100.00
23616;BME280;11985;49.404;7.734;2023-02-19T16:17:05;98193.22;;;8.23;100.00
23616;BME280;11985;49.404;7.734;2023-02-19T16:22:16;98177.47;;;8.23;100.00
23616;BME280;11985;49.404;7.734;2023-02-19T16:27:27;98175.34;;;8.18;100.00
23616;BME280;11985;49.404;7.734;2023-02-19T16:32:30;98185.34;;;8.15;100.00
23616;BME280;11985;49.404;7.734;2023-02-19T16:37:35;98163.38;;;8.08;100.00
23616;BME280;11985;49.404;7.734;2023-02-19T16:43:22;98162.44;;;8.01;100.00
23616;BME280;11985;49.404;7.734;2023-02-19T16:48:24;98166.69;;;7.93;100.00
23616;BME280;11985;49.404;7.734;2023-02-19T16:53:27;98186.22;;;7.83;100.00
23616;BME280;11985;49.404;7.734;2023-02-19T16:58:29;98185.72;;;7.79;100.00
23616;BME280;11985;49.404;7.734;2023-02-19T17:03:31;98188.34;;;7.71;100.00
23616;BME280;11985;49.404;7.734;2023-02-19T17:08:36;98189.81;;;7.65;100.00
23616;BME280;11985;49.404;7.734;2023-02-19T17:13:39;98192.97;;;7.61;100.00
23616;BME280;11985;49.404;7.734;2023-02-19T17:18:40;98200.00;;;7.68;100.00
23616;BME280;11985;49.404;7.734;2023-02-19T17:23:43;98193.94;;;7.68;100.00
23616;BME280;11985;49.404;7.734;2023-02-19T17:28:45;98202.78;;;7.67;100.00
23616;BME280;11985;49.404;7.734;2023-02-19T17:33:47;98203.09;;;7.64;100.00
23616;BME280;11985;49.404;7.734;2023-02-19T17:38:50;98201.13;;;7.58;100.00
23616;BME280;11985;49.404;7.734;2023-02-19T17:43:52;98216.88;;;7.50;100.00
23616;BME280;11985;49.404;7.734;2023-02-19T17:48:53;98235.22;;;7.50;100.00
23616;BME280;11985;49.404;7.734;2023-02-19T17:53:56;98247.00;;;7.46;100.00
23616;BME280;11985;49.404;7.734;2023-02-19T17:58:58;98253.88;;;7.47;100.00
23616;BME280;11985;49.404;7.734;2023-02-19T18:04:00;98252.72;;;7.49;100.00
23616;BME280;11985;49.404;7.734;2023-02-19T18:09:03;98254.69;;;7.47;100.00
23616;BME280;11985;49.404;7.734;2023-02-19T18:14:05;98274.22;;;7.45;100.00
23616;BME280;11985;49.404;7.734;2023-02-19T18:19:06;98282.06;;;7.53;100.00
23616;BME280;11985;49.404;7.734;2023-02-19T18:24:10;98292.06;;;7.57;100.00
23616;BME280;11985;49.404;7.734;2023-02-19T18:29:11;98294.53;;;7.51;100.00
23616;BME280;11985;49.404;7.734;2023-02-19T18:34:17;98305.34;;;7.56;100.00
23616;BME280;11985;49.404;7.734;2023-02-19T18:39:20;98306.31;;;7.47;100.00
23616;BME280;11985;49.404;7.734;2023-02-19T18:44:23;98314.81;;;7.49;100.00
23616;BME280;11985;49.404;7.734;2023-02-19T18:49:25;98307.94;;;7.48;100.00
23616;BME280;11985;49.404;7.734;2023-02-19T18:54:30;98313.53;;;7.45;100.00
23616;BME280;11985;49.404;7.734;2023-02-19T18:59:32;98319.88;;;7.42;100.00
23616;BME280;11985;49.404;7.734;2023-02-19T19:04:34;98308.59;;;7.41;100.00
23616;BME280;11985;49.404;7.734;2023-02-19T19:09:37;98316.78;;;7.38;100.00
23616;BME280;11985;49.404;7.734;2023-02-19T19:14:39;98318.56;;;7.38;100.00
23616;BME280;11985;49.404;7.734;2023-02-19T19:19:42;98328.44;;;7.44;100.00
23616;BME280;11985;49.404;7.734;2023-02-19T19:24:45;98321.72;;;7.50;100.00
23616;BME280;11985;49.404;7.734;2023-02-19T19:29:46;98331.38;;;7.49;100.00
23616;BME280;11985;49.404;7.734;2023-02-19T19:34:48;98320.88;;;7.49;100.00
23616;BME280;11985;49.404;7.734;2023-02-19T19:39:51;98312.19;;;7.40;100.00
23616;BME280;11985;49.404;7.734;2023-02-19T19:44:53;98313.97;;;7.32;100.00
23616;BME280;11985;49.404;7.734;2023-02-19T19:49:56;98310.84;;;7.28;100.00
23616;BME280;11985;49.404;7.734;2023-02-19T19:54:59;98310.69;;;7.30;100.00
23616;BME280;11985;49.404;7.734;2023-02-19T20:00:01;98323.44;;;7.25;100.00
23616;BME280;11985;49.404;7.734;2023-02-19T20:05:04;98330.66;;;7.23;100.00
23616;BME280;11985;49.404;7.734;2023-02-19T20:10:08;98311.16;;;7.25;100.00
23616;BME280;11985;49.404;7.734;2023-02-19T20:15:12;98325.53;;;7.21;100.00
23616;BME280;11985;49.404;7.734;2023-02-19T20:20:15;98339.97;;;7.25;100.00
23616;BME280;11985;49.404;7.734;2023-02-19T20:25:20;98322.97;;;7.29;100.00
23616;BME280;11985;49.404;7.734;2023-02-19T20:30:22;98326.94;;;7.41;100.00
23616;BME280;11985;49.404;7.734;2023-02-19T20:35:24;98340.72;;;7.52;100.00
23616;BME280;11985;49.404;7.734;2023-02-19T20:40:29;98346.97;;;7.51;100.00
23616;BME280;11985;49.404;7.734;2023-02-19T20:45:33;98350.22;;;7.45;100.00
23616;BME280;11985;49.404;7.734;2023-02-19T20:50:34;98348.38;;;7.37;100.00
23616;BME280;11985;49.404;7.734;2023-02-19T20:55:37;98352.31;;;7.33;100.00
23616;BME280;11985;49.404;7.734;2023-02-19T21:00:39;98353.09;;;7.25;100.00
23616;BME280;11985;49.404;7.734;2023-02-19T21:05:40;98345.56;;;7.22;100.00
23616;BME280;11985;49.404;7.734;2023-02-19T21:10:45;98332.09;;;7.17;100.00
23616;BME280;11985;49.404;7.734;2023-02-19T21:15:46;98343.53;;;7.16;100.00
23616;BME280;11985;49.404;7.734;2023-02-19T21:20:48;98344.16;;;7.10;100.00
23616;BME280;11985;49.404;7.734;2023-02-19T21:25:51;98353.69;;;7.11;100.00
23616;BME280;11985;49.404;7.734;2023-02-19T21:30:52;98350.56;;;7.15;100.00
23616;BME280;11985;49.404;7.734;2023-02-19T21:35:54;98366.81;;;7.19;100.00
23616;BME280;11985;49.404;7.734;2023-02-19T21:40:58;98359.59;;;7.21;100.00
23616;BME280;11985;49.404;7.734;2023-02-19T21:45:59;98367.28;;;7.14;100.00
23616;BME280;11985;49.404;7.734;2023-02-19T21:51:02;98368.25;;;7.13;100.00
23616;BME280;11985;49.404;7.734;2023-02-19T21:56:05;98374.94;;;7.08;100.00
23616;BME280;11985;49.404;7.734;2023-02-19T22:01:07;98380.50;;;7.05;100.00
23616;BME280;11985;49.404;7.734;2023-02-19T22:06:09;98373.31;;;7.07;100.00
23616;BME280;11985;49.404;7.734;2023-02-19T22:11:11;98359.84;;;7.02;100.00
23616;BME280;11985;49.404;7.734;2023-02-19T22:16:13;98371.94;;;6.95;100.00
23616;BME280;11985;49.404;7.734;2023-02-19T22:21:15;98367.16;;;6.90;100.00
23616;BME280;11985;49.404;7.734;2023-02-19T22:26:20;98371.88;;;6.86;100.00
23616;BME280;11985;49.404;7.734;2023-02-19T22:31:23;98384.94;;;6.78;100.00
23616;BME280;11985;49.404;7.734;2023-02-19T22:36:27;98381.16;;;6.73;100.00
23616;BME280;11985;49.404;7.734;2023-02-19T22:41:31;98384.50;;;6.65;100.00
23616;BME280;11985;49.404;7.734;2023-02-19T22:46:33;98379.69;;;6.52;100.00
23616;BME280;11985;49.404;7.734;2023-02-19T22:51:35;98388.31;;;6.45;100.00
23616;BME280;11985;49.404;7.734;2023-02-19T22:56:37;98397.00;;;6.27;100.00
23616;BME280;11985;49.404;7.734;2023-02-19T23:01:39;98410.00;;;6.19;100.00
23616;BME280;11985;49.404;7.734;2023-02-19T23:06:41;98401.13;;;6.12;100.00
23616;BME280;11985;49.404;7.734;2023-02-19T23:11:45;98411.47;;;6.04;100.00
23616;BME280;11985;49.404;7.734;2023-02-19T23:16:46;98413.22;;;5.95;100.00
23616;BME280;11985;49.404;7.734;2023-02-19T23:21:48;98412.41;;;5.85;100.00
23616;BME280;11985;49.404;7.734;2023-02-19T23:26:51;98404.78;;;5.74;100.00
23616;BME280;11985;49.404;7.734;2023-02-19T23:31:53;98406.84;;;5.70;100.00
23616;BME280;11985;49.404;7.734;2023-02-19T23:36:55;98415.81;;;5.68;100.00
23616;BME280;11985;49.404;7.734;2023-02-19T23:42:00;98401.25;;;5.65;100.00
23616;BME280;11985;49.404;7.734;2023-02-19T23:47:01;98401.56;;;5.62;100.00
23616;BME280;11985;49.404;7.734;2023-02-19T23:52:03;98383.03;;;5.55;100.00
23616;BME280;11985;49.404;7.734;2023-02-19T23:57:06;98380.97;;;5.49;100.00
